sensor_id;sensor_type;location;lat;lon;timestamp;pressure;altitude;pressure_sealevel;temperature;humidity
77003;BME280;65939;50.060;14.288;2024-01-30T00:00:30;98933.31;;;-2.60;91.56
77003;BME280;65939;50.060;14.288;2024-01-30T00:02:32;98929.91;;;-2.61;91.67
77003;BME280;65939;50.060;14.288;2024-01-30T00:04:33;98934.16;;;-2.60;91.53
77003;BME280;65939;50.060;14.288;2024-01-30T00:06:33;98941.03;;;-2.63;91.02
77003;BME280;65939;50.060;14.288;2024-01-30T00:08:34;98930.13;;;-2.70;90.90
77003;BME280;65939;50.060;14.288;2024-01-30T00:10:35;98927.69;;;-2.76;90.90
77003;BME280;65939;50.060;14.288;2024-01-30T00:12:36;98932.06;;;-2.81;90.84
77003;BME280;65939;50.060;14.288;2024-01-30T00:14:37;98930.44;;;-2.85;91.02
77003;BME280;65939;50.060;14.288;2024-01-30T00:16:38;98931.38;;;-2.88;91.32
77003;BME280;65939;50.060;14.288;2024-01-30T00:18:39;98930.50;;;-2.89;91.49
77003;BME280;65939;50.060;14.288;2024-01-30T00:20:40;98927.03;;;-2.86;91.17
77003;BME280;65939;50.060;14.288;2024-01-30T00:22:41;98924.50;;;-2.86;91.26
77003;BME280;65939;50.060;14.288;2024-01-30T00:24:41;98917.72;;;-2.87;90.97
77003;BME280;65939;50.060;14.288;2024-01-30T00:26:42;98920.28;;;-2.89;91.18
77003;BME280;65939;50.060;14.288;2024-01-30T00:28:43;98912.53;;;-2.84;91.24
77003;BME280;65939;50.060;14.288;2024-01-30T00:30:44;98920.09;;;-2.79;90.64
77003;BME280;65939;50.060;14.288;2024-01-30T00:32:44;98912.31;;;-2.75;90.56
77003;BME280;65939;50.060;14.288;2024-01-30T00:34:46;98917.38;;;-2.72;90.29
77003;BME280;65939;50.060;14.288;2024-01-30T00:36:46;98910.59;;;-2.74;89.87
77003;BME280;65939;50.060;14.288;2024-01-30T00:38:47;98913.16;;;-2.74;89.64
77003;BME280;65939;50.060;14.288;2024-01-30T00:40:48;98913.16;;;-2.74;89.28
77003;BME280;65939;50.060;14.288;2024-01-30T00:42:49;98916.59;;;-2.75;89.31
77003;BME280;65939;50.060;14.288;2024-01-30T00:44:50;98912.38;;;-2.76;89.02
77003;BME280;65939;50.060;14.288;2024-01-30T00:46:51;98916.66;;;-2.78;88.47
77003;BME280;65939;50.060;14.288;2024-01-30T00:48:51;98913.31;;;-2.80;88.41
77003;BME280;65939;50.060;14.288;2024-01-30T00:50:52;98915.03;;;-2.82;88.55
77003;BME280;65939;50.060;14.288;2024-01-30T00:52:53;98913.47;;;-2.88;88.50
77003;BME280;65939;50.060;14.288;2024-01-30T00:54:53;98913.50;;;-2.90;88.30
77003;BME280;65939;50.060;14.288;2024-01-30T00:56:54;98906.72;;;-2.91;88.03
77003;BME280;65939;50.060;14.288;2024-01-30T00:58:55;98904.16;;;-2.91;87.50
77003;BME280;65939;50.060;14.288;2024-01-30T01:00:56;98900.75;;;-2.91;87.75
77003;BME280;65939;50.060;14.288;2024-01-30T01:02:59;98896.50;;;-2.92;87.94
77003;BME280;65939;50.060;14.288;2024-01-30T01:05:00;98894.88;;;-2.95;87.51
77003;BME280;65939;50.060;14.288;2024-01-30T01:07:02;98896.59;;;-2.97;87.49
77003;BME280;65939;50.060;14.288;2024-01-30T01:09:03;98893.25;;;-2.99;87.89
77003;BME280;65939;50.060;14.288;2024-01-30T01:11:04;98894.09;;;-2.98;87.76
77003;BME280;65939;50.060;14.288;2024-01-30T01:13:04;98892.41;;;-2.99;87.77
77003;BME280;65939;50.060;14.288;2024-01-30T01:15:05;98888.16;;;-2.99;88.10
77003;BME280;65939;50.060;14.288;2024-01-30T01:17:09;98887.28;;;-2.98;88.40
77003;BME280;65939;50.060;14.288;2024-01-30T01:19:10;98881.28;;;-2.97;88.71
77003;BME280;65939;50.060;14.288;2024-01-30T01:21:11;98886.38;;;-2.95;88.70
77003;BME280;65939;50.060;14.288;2024-01-30T01:23:11;98882.88;;;-2.93;89.13
77003;BME280;65939;50.060;14.288;2024-01-30T01:25:12;98894.72;;;-2.89;89.24
77003;BME280;65939;50.060;14.288;2024-01-30T01:27:13;98892.16;;;-2.89;89.17
77003;BME280;65939;50.060;14.288;2024-01-30T01:29:14;98896.53;;;-2.94;88.41
77003;BME280;65939;50.060;14.288;2024-01-30T01:31:16;98895.00;;;-3.01;88.17
77003;BME280;65939;50.060;14.288;2024-01-30T01:33:18;98902.72;;;-3.04;87.68
77003;BME280;65939;50.060;14.288;2024-01-30T01:35:18;98894.28;;;-3.07;87.97
77003;BME280;65939;50.060;14.288;2024-01-30T01:37:19;98897.72;;;-3.08;88.20
77003;BME280;65939;50.060;14.288;2024-01-30T01:39:22;98900.22;;;-3.07;87.85
77003;BME280;65939;50.060;14.288;2024-01-30T01:41:30;98897.66;;;-3.07;88.02
77003;BME280;65939;50.060;14.288;2024-01-30T01:43:31;98899.44;;;-3.09;87.51
77003;BME280;65939;50.060;14.288;2024-01-30T01:45:31;98900.31;;;-3.11;87.55
77003;BME280;65939;50.060;14.288;2024-01-30T01:47:32;98895.31;;;-3.16;87.14
77003;BME280;65939;50.060;14.288;2024-01-30T01:49:33;98902.25;;;-3.23;87.12
77003;BME280;65939;50.060;14.288;2024-01-30T01:51:35;98895.59;;;-3.31;87.56
77003;BME280;65939;50.060;14.288;2024-01-30T01:53:36;98894.03;;;-3.37;87.54
77003;BME280;65939;50.060;14.288;2024-01-30T01:55:37;98890.69;;;-3.41;87.51
77003;BME280;65939;50.060;14.288;2024-01-30T01:57:38;98893.25;;;-3.41;87.56
77003;BME280;65939;50.060;14.288;2024-01-30T01:59:39;98892.38;;;-3.40;87.59
77003;BME280;65939;50.060;14.288;2024-01-30T02:01:40;98889.81;;;-3.40;87.54
77003;BME280;65939;50.060;14.288;2024-01-30T02:03:42;98893.31;;;-3.45;87.82
77003;BME280;65939;50.060;14.288;2024-01-30T02:05:43;98882.41;;;-3.52;87.87
77003;BME280;65939;50.060;14.288;2024-01-30T02:07:44;98890.94;;;-3.54;88.00
77003;BME280;65939;50.060;14.288;2024-01-30T02:09:45;98891.00;;;-3.57;88.39
77003;BME280;65939;50.060;14.288;2024-01-30T02:11:46;98885.94;;;-3.61;88.33
77003;BME280;65939;50.060;14.288;2024-01-30T02:13:46;98884.28;;;-3.63;88.58
77003;BME280;65939;50.060;14.288;2024-01-30T02:15:51;98889.44;;;-3.65;89.02
77003;BME280;65939;50.060;14.288;2024-01-30T02:17:51;98883.59;;;-3.71;89.08
77003;BME280;65939;50.060;14.288;2024-01-30T02:19:52;98887.09;;;-3.75;89.01
77003;BME280;65939;50.060;14.288;2024-01-30T02:21:53;98889.66;;;-3.77;89.47
77003;BME280;65939;50.060;14.288;2024-01-30T02:23:55;98890.50;;;-3.76;89.62
77003;BME280;65939;50.060;14.288;2024-01-30T02:25:56;98882.81;;;-3.73;89.56
77003;BME280;65939;50.060;14.288;2024-01-30T02:27:57;98885.25;;;-3.69;89.88
77003;BME280;65939;50.060;14.288;2024-01-30T02:29:58;98888.53;;;-3.62;89.62
77003;BME280;65939;50.060;14.288;2024-01-30T02:31:59;98885.06;;;-3.59;89.21
77003;BME280;65939;50.060;14.288;2024-01-30T02:34:00;98886.75;;;-3.57;89.40
77003;BME280;65939;50.060;14.288;2024-01-30T02:36:00;98890.13;;;-3.55;88.82
77003;BME280;65939;50.060;14.288;2024-01-30T02:38:02;98888.34;;;-3.53;88.79
77003;BME280;65939;50.060;14.288;2024-01-30T02:40:04;98888.41;;;-3.54;87.99
77003;BME280;65939;50.060;14.288;2024-01-30T02:42:05;98885.13;;;-3.61;88.13
77003;BME280;65939;50.060;14.288;2024-01-30T02:44:06;98885.16;;;-3.64;88.41
77003;BME280;65939;50.060;14.288;2024-01-30T02:46:06;98881.81;;;-3.66;88.45
77003;BME280;65939;50.060;14.288;2024-01-30T02:48:07;98886.09;;;-3.68;88.33
77003;BME280;65939;50.060;14.288;2024-01-30T02:50:08;98884.47;;;-3.72;88.36
77003;BME280;65939;50.060;14.288;2024-01-30T02:52:09;98886.19;;;-3.74;88.42
77003;BME280;65939;50.060;14.288;2024-01-30T02:54:10;98887.03;;;-3.72;88.66
77003;BME280;65939;50.060;14.288;2024-01-30T02:56:11;98886.19;;;-3.73;88.84
77003;BME280;65939;50.060;14.288;2024-01-30T02:58:12;98876.78;;;-3.69;88.79
77003;BME280;65939;50.060;14.288;2024-01-30T03:00:13;98883.44;;;-3.62;88.62
77003;BME280;65939;50.060;14.288;2024-01-30T03:02:14;98884.25;;;-3.60;87.93
77003;BME280;65939;50.060;14.288;2024-01-30T03:04:15;98873.97;;;-3.57;88.61
77003;BME280;65939;50.060;14.288;2024-01-30T03:06:16;98876.50;;;-3.55;88.73
77003;BME280;65939;50.060;14.288;2024-01-30T03:08:17;98873.88;;;-3.52;88.39
77003;BME280;65939;50.060;14.288;2024-01-30T03:10:18;98873.88;;;-3.52;88.09
77003;BME280;65939;50.060;14.288;2024-01-30T03:12:19;98879.06;;;-3.55;88.11
77003;BME280;65939;50.060;14.288;2024-01-30T03:14:19;98872.25;;;-3.55;88.17
77003;BME280;65939;50.060;14.288;2024-01-30T03:16:20;98869.66;;;-3.53;87.76
77003;BME280;65939;50.060;14.288;2024-01-30T03:18:21;98863.66;;;-3.52;88.00
77003;BME280;65939;50.060;14.288;2024-01-30T03:20:22;98858.59;;;-3.54;88.06
77003;BME280;65939;50.060;14.288;2024-01-30T03:22:22;98858.56;;;-3.52;88.12
77003;BME280;65939;50.060;14.288;2024-01-30T03:24:23;98859.44;;;-3.53;87.75
77003;BME280;65939;50.060;14.288;2024-01-30T03:26:23;98855.22;;;-3.56;87.42
77003;BME280;65939;50.060;14.288;2024-01-30T03:28:24;98859.53;;;-3.58;87.51
77003;BME280;65939;50.060;14.288;2024-01-30T03:30:25;98860.38;;;-3.57;87.70
77003;BME280;65939;50.060;14.288;2024-01-30T03:32:25;98861.25;;;-3.58;87.36
77003;BME280;65939;50.060;14.288;2024-01-30T03:34:26;98862.16;;;-3.61;87.21
77003;BME280;65939;50.060;14.288;2024-01-30T03:36:27;98856.22;;;-3.63;87.56
77003;BME280;65939;50.060;14.288;2024-01-30T03:38:28;98857.09;;;-3.64;87.26
77003;BME280;65939;50.060;14.288;2024-01-30T03:40:28;98853.75;;;-3.66;87.50
77003;BME280;65939;50.060;14.288;2024-01-30T03:42:29;98857.19;;;-3.69;87.03
77003;BME280;65939;50.060;14.288;2024-01-30T03:44:30;98855.53;;;-3.71;87.46
77003;BME280;65939;50.060;14.288;2024-01-30T03:46:30;98845.28;;;-3.68;87.46
77003;BME280;65939;50.060;14.288;2024-01-30T03:48:31;98847.81;;;-3.68;86.90
77003;BME280;65939;50.060;14.288;2024-01-30T03:50:32;98856.34;;;-3.69;86.88
77003;BME280;65939;50.060;14.288;2024-01-30T03:52:33;98841.03;;;-3.69;87.00
77003;BME280;65939;50.060;14.288;2024-01-30T03:54:33;98845.28;;;-3.68;86.33
77003;BME280;65939;50.060;14.288;2024-01-30T03:56:34;98846.94;;;-3.67;86.73
77003;BME280;65939;50.060;14.288;2024-01-30T03:58:36;98838.44;;;-3.66;86.53
77003;BME280;65939;50.060;14.288;2024-01-30T04:00:36;98834.16;;;-3.66;86.01
77003;BME280;65939;50.060;14.288;2024-01-30T04:02:37;98846.94;;;-3.66;86.15
77003;BME280;65939;50.060;14.288;2024-01-30T04:04:38;98841.78;;;-3.63;86.09
77003;BME280;65939;50.060;14.288;2024-01-30T04:06:39;98841.78;;;-3.63;85.74
77003;BME280;65939;50.060;14.288;2024-01-30T04:08:40;98840.06;;;-3.62;85.91
77003;BME280;65939;50.060;14.288;2024-01-30T04:10:40;98839.19;;;-3.61;85.42
77003;BME280;65939;50.060;14.288;2024-01-30T04:12:41;98839.19;;;-3.61;85.83
77003;BME280;65939;50.060;14.288;2024-01-30T04:14:43;98839.19;;;-3.61;85.50
77003;BME280;65939;50.060;14.288;2024-01-30T04:16:44;98835.78;;;-3.62;85.63
77003;BME280;65939;50.060;14.288;2024-01-30T04:18:45;98847.72;;;-3.62;85.67
77003;BME280;65939;50.060;14.288;2024-01-30T04:20:45;98835.88;;;-3.66;85.58
77003;BME280;65939;50.060;14.288;2024-01-30T04:22:46;98841.03;;;-3.69;85.85
77003;BME280;65939;50.060;14.288;2024-01-30T04:24:47;98847.91;;;-3.73;85.69
77003;BME280;65939;50.060;14.288;2024-01-30T04:26:48;98849.63;;;-3.73;85.43
77003;BME280;65939;50.060;14.288;2024-01-30T04:28:48;98841.97;;;-3.73;85.94
77003;BME280;65939;50.060;14.288;2024-01-30T04:30:49;98851.31;;;-3.72;85.91
77003;BME280;65939;50.060;14.288;2024-01-30T04:32:50;98851.31;;;-3.72;86.15
77003;BME280;65939;50.060;14.288;2024-01-30T04:34:51;98850.44;;;-3.71;85.71
77003;BME280;65939;50.060;14.288;2024-01-30T04:36:51;98850.44;;;-3.71;85.99
77003;BME280;65939;50.060;14.288;2024-01-30T04:38:52;98863.13;;;-3.68;85.84
77003;BME280;65939;50.060;14.288;2024-01-30T04:40:52;98857.16;;;-3.67;85.80
77003;BME280;65939;50.060;14.288;2024-01-30T04:42:53;98854.59;;;-3.66;85.91
77003;BME280;65939;50.060;14.288;2024-01-30T04:44:54;98850.25;;;-3.62;85.56
77003;BME280;65939;50.060;14.288;2024-01-30T04:46:54;98846.78;;;-3.59;85.77
77003;BME280;65939;50.060;14.288;2024-01-30T04:48:59;98850.16;;;-3.57;85.87
77003;BME280;65939;50.060;14.288;2024-01-30T04:51:00;98851.84;;;-3.56;85.50
77003;BME280;65939;50.060;14.288;2024-01-30T04:53:04;98846.78;;;-3.58;85.58
77003;BME280;65939;50.060;14.288;2024-01-30T04:55:05;98856.22;;;-3.62;85.63
77003;BME280;65939;50.060;14.288;2024-01-30T04:57:05;98852.00;;;-3.64;85.66
77003;BME280;65939;50.060;14.288;2024-01-30T04:59:09;98853.75;;;-3.66;85.69
77003;BME280;65939;50.060;14.288;2024-01-30T05:01:15;98861.38;;;-3.65;85.87
77003;BME280;65939;50.060;14.288;2024-01-30T05:03:15;98855.41;;;-3.65;85.71
77003;BME280;65939;50.060;14.288;2024-01-30T05:05:16;98858.88;;;-3.68;85.47
77003;BME280;65939;50.060;14.288;2024-01-30T05:07:17;98864.84;;;-3.69;85.17
77003;BME280;65939;50.060;14.288;2024-01-30T05:09:18;98868.22;;;-3.68;85.20
77003;BME280;65939;50.060;14.288;2024-01-30T05:11:19;98861.53;;;-3.74;85.32
77003;BME280;65939;50.060;14.288;2024-01-30T05:13:20;98863.38;;;-3.80;85.74
77003;BME280;65939;50.060;14.288;2024-01-30T05:15:20;98867.66;;;-3.82;85.55
77003;BME280;65939;50.060;14.288;2024-01-30T05:17:21;98863.44;;;-3.85;86.07
77003;BME280;65939;50.060;14.288;2024-01-30T05:19:22;98860.88;;;-3.83;85.94
77003;BME280;65939;50.060;14.288;2024-01-30T05:21:23;98863.47;;;-3.87;85.76
77003;BME280;65939;50.060;14.288;2024-01-30T05:23:24;98866.13;;;-3.91;85.73
77003;BME280;65939;50.060;14.288;2024-01-30T05:25:25;98867.88;;;-3.96;85.86
77003;BME280;65939;50.060;14.288;2024-01-30T05:27:25;98867.97;;;-4.01;86.23
77003;BME280;65939;50.060;14.288;2024-01-30T05:29:26;98873.06;;;-4.01;86.80
77003;BME280;65939;50.060;14.288;2024-01-30T05:31:27;98867.09;;;-4.00;86.59
77003;BME280;65939;50.060;14.288;2024-01-30T05:33:30;98863.66;;;-3.99;86.95
77003;BME280;65939;50.060;14.288;2024-01-30T05:35:31;98866.16;;;-3.96;86.65
77003;BME280;65939;50.060;14.288;2024-01-30T05:37:31;98862.75;;;-3.93;87.24
77003;BME280;65939;50.060;14.288;2024-01-30T05:39:32;98867.78;;;-3.90;86.65
77003;BME280;65939;50.060;14.288;2024-01-30T05:41:33;98860.09;;;-3.87;86.40
77003;BME280;65939;50.060;14.288;2024-01-30T05:43:34;98859.16;;;-3.83;nan
77003;BME280;65939;50.060;14.288;2024-01-30T05:45:34;98853.13;;;-3.79;86.22
77003;BME280;65939;50.060;14.288;2024-01-30T05:47:36;98853.91;;;-3.75;86.06
77003;BME280;65939;50.060;14.288;2024-01-30T05:49:36;98854.75;;;-3.75;85.84
77003;BME280;65939;50.060;14.288;2024-01-30T05:51:37;98856.41;;;-3.72;86.15
77003;BME280;65939;50.060;14.288;2024-01-30T05:53:38;98858.91;;;-3.69;85.79
77003;BME280;65939;50.060;14.288;2024-01-30T05:55:39;98850.38;;;-3.68;85.83
77003;BME280;65939;50.060;14.288;2024-01-30T05:57:39;98863.97;;;-3.66;85.71
77003;BME280;65939;50.060;14.288;2024-01-30T05:59:40;98852.88;;;-3.65;85.35
77003;BME280;65939;50.060;14.288;2024-01-30T06:01:47;98863.03;;;-3.64;85.39
77003;BME280;65939;50.060;14.288;2024-01-30T06:03:48;98857.91;;;-3.62;85.61
77003;BME280;65939;50.060;14.288;2024-01-30T06:05:49;98866.38;;;-3.60;85.88
77003;BME280;65939;50.060;14.288;2024-01-30T06:07:49;98859.53;;;-3.59;86.03
77003;BME280;65939;50.060;14.288;2024-01-30T06:09:50;98856.16;;;-3.58;85.90
77003;BME280;65939;50.060;14.288;2024-01-30T06:11:51;98854.44;;;-3.59;85.84
77003;BME280;65939;50.060;14.288;2024-01-30T06:13:51;98852.75;;;-3.59;86.11
77003;BME280;65939;50.060;14.288;2024-01-30T06:15:52;98857.03;;;-3.61;85.57
77003;BME280;65939;50.060;14.288;2024-01-30T06:17:53;98855.38;;;-3.62;86.06
77003;BME280;65939;50.060;14.288;2024-01-30T06:19:54;98853.66;;;-3.63;85.75
77003;BME280;65939;50.060;14.288;2024-01-30T06:21:54;98852.97;;;-3.70;85.48
77003;BME280;65939;50.060;14.288;2024-01-30T06:23:55;98861.59;;;-3.77;85.74
77003;BME280;65939;50.060;14.288;2024-01-30T06:25:55;98860.03;;;-3.86;85.89
77003;BME280;65939;50.060;14.288;2024-01-30T06:27:56;98864.41;;;-3.92;86.16
77003;BME280;65939;50.060;14.288;2024-01-30T06:29:57;98868.78;;;-3.99;86.48
77003;BME280;65939;50.060;14.288;2024-01-30T06:31:58;98873.13;;;-4.04;86.58
77003;BME280;65939;50.060;14.288;2024-01-30T06:33:58;98869.75;;;-4.06;86.88
77003;BME280;65939;50.060;14.288;2024-01-30T06:35:59;98873.19;;;-4.07;87.31
77003;BME280;65939;50.060;14.288;2024-01-30T06:38:00;98869.88;;;-4.12;87.48
77003;BME280;65939;50.060;14.288;2024-01-30T06:40:00;98874.97;;;-4.12;87.79
77003;BME280;65939;50.060;14.288;2024-01-30T06:42:03;98881.78;;;-4.14;87.98
77003;BME280;65939;50.060;14.288;2024-01-30T06:44:04;98875.06;;;-4.18;88.07
77003;BME280;65939;50.060;14.288;2024-01-30T06:46:06;98879.34;;;-4.19;88.54
77003;BME280;65939;50.060;14.288;2024-01-30T06:48:07;98882.66;;;-4.15;88.82
77003;BME280;65939;50.060;14.288;2024-01-30T06:50:08;98878.31;;;-4.10;88.76
77003;BME280;65939;50.060;14.288;2024-01-30T06:52:09;98884.16;;;-4.03;89.15
77003;BME280;65939;50.060;14.288;2024-01-30T06:54:10;98883.22;;;-3.98;88.82
77003;BME280;65939;50.060;14.288;2024-01-30T06:56:10;98887.41;;;-3.95;88.73
77003;BME280;65939;50.060;14.288;2024-01-30T06:58:11;98882.25;;;-3.92;88.99
77003;BME280;65939;50.060;14.288;2024-01-30T07:00:12;98883.94;;;-3.90;89.10
77003;BME280;65939;50.060;14.288;2024-01-30T07:02:14;98884.75;;;-3.88;89.05
77003;BME280;65939;50.060;14.288;2024-01-30T07:04:14;98885.56;;;-3.86;88.91
77003;BME280;65939;50.060;14.288;2024-01-30T07:06:16;98880.44;;;-3.84;89.04
77003;BME280;65939;50.060;14.288;2024-01-30T07:08:17;98881.28;;;-3.85;89.36
77003;BME280;65939;50.060;14.288;2024-01-30T07:10:17;98886.34;;;-3.80;89.82
77003;BME280;65939;50.060;14.288;2024-01-30T07:12:18;98893.91;;;-3.77;89.92
77003;BME280;65939;50.060;14.288;2024-01-30T07:14:19;98894.72;;;-3.75;89.84
77003;BME280;65939;50.060;14.288;2024-01-30T07:16:19;98890.38;;;-3.69;90.16
77003;BME280;65939;50.060;14.288;2024-01-30T07:18:20;98901.31;;;-3.62;89.97
77003;BME280;65939;50.060;14.288;2024-01-30T07:20:21;98896.94;;;-3.57;90.06
77003;BME280;65939;50.060;14.288;2024-01-30T07:22:22;98901.13;;;-3.53;89.86
77003;BME280;65939;50.060;14.288;2024-01-30T07:24:22;98895.91;;;-3.47;90.41
77003;BME280;65939;50.060;14.288;2024-01-30T07:26:23;98902.56;;;-3.40;90.29
77003;BME280;65939;50.060;14.288;2024-01-30T07:28:24;98895.75;;;-3.38;90.22
77003;BME280;65939;50.060;14.288;2024-01-30T07:30:24;98900.75;;;-3.34;90.55
77003;BME280;65939;50.060;14.288;2024-01-30T07:32:25;98898.19;;;-3.33;90.48
77003;BME280;65939;50.060;14.288;2024-01-30T07:34:26;98897.34;;;-3.33;90.31
77003;BME280;65939;50.060;14.288;2024-01-30T07:36:28;98902.44;;;-3.32;90.45
77003;BME280;65939;50.060;14.288;2024-01-30T07:38:31;98904.09;;;-3.31;90.95
77003;BME280;65939;50.060;14.288;2024-01-30T07:40:32;98902.31;;;-3.27;91.23
77003;BME280;65939;50.060;14.288;2024-01-30T07:42:33;98901.34;;;-3.20;91.37
77003;BME280;65939;50.060;14.288;2024-01-30T07:44:34;98911.38;;;-3.11;91.34
77003;BME280;65939;50.060;14.288;2024-01-30T07:46:35;98907.72;;;-2.98;91.40
77003;BME280;65939;50.060;14.288;2024-01-30T07:48:35;98911.69;;;-2.84;91.60
77003;BME280;65939;50.060;14.288;2024-01-30T07:50:36;98913.09;;;-2.71;91.46
77003;BME280;65939;50.060;14.288;2024-01-30T07:52:37;98917.97;;;-2.59;91.25
77003;BME280;65939;50.060;14.288;2024-01-30T07:54:38;98922.00;;;-2.50;91.05
77003;BME280;65939;50.060;14.288;2024-01-30T07:56:39;98918.44;;;-2.43;90.96
77003;BME280;65939;50.060;14.288;2024-01-30T07:58:40;98916.47;;;-2.32;90.82
77003;BME280;65939;50.060;14.288;2024-01-30T08:00:40;98921.31;;;-2.20;90.92
77003;BME280;65939;50.060;14.288;2024-01-30T08:02:41;98914.22;;;-2.08;90.39
77003;BME280;65939;50.060;14.288;2024-01-30T08:04:42;98919.06;;;-1.98;89.95
77003;BME280;65939;50.060;14.288;2024-01-30T08:06:43;98908.66;;;-1.90;89.51
77003;BME280;65939;50.060;14.288;2024-01-30T08:08:44;98908.50;;;-1.84;89.87
77003;BME280;65939;50.060;14.288;2024-01-30T08:10:45;98904.84;;;-1.75;89.67
77003;BME280;65939;50.060;14.288;2024-01-30T08:12:45;98910.53;;;-1.64;89.36
77003;BME280;65939;50.060;14.288;2024-01-30T08:14:46;98902.56;;;-1.52;89.56
77003;BME280;65939;50.060;14.288;2024-01-30T08:16:47;98891.19;;;-1.41;89.46
77003;BME280;65939;50.060;14.288;2024-01-30T08:18:47;98899.41;;;-1.30;89.56
77003;BME280;65939;50.060;14.288;2024-01-30T08:20:48;98905.13;;;-1.21;89.25
77003;BME280;65939;50.060;14.288;2024-01-30T08:22:49;98898.88;;;-1.12;89.46
77003;BME280;65939;50.060;14.288;2024-01-30T08:24:50;98898.63;;;-1.03;88.96
77003;BME280;65939;50.060;14.288;2024-01-30T08:26:51;98900.06;;;-0.92;89.00
77003;BME280;65939;50.060;14.288;2024-01-30T08:28:51;98896.38;;;-0.84;88.72
77003;BME280;65939;50.060;14.288;2024-01-30T08:30:54;98893.56;;;-0.75;89.02
77003;BME280;65939;50.060;14.288;2024-01-30T08:32:54;98895.81;;;-0.65;88.96
77003;BME280;65939;50.060;14.288;2024-01-30T08:34:55;98900.69;;;-0.56;88.70
77003;BME280;65939;50.060;14.288;2024-01-30T08:36:56;98901.28;;;-0.48;88.59
77003;BME280;65939;50.060;14.288;2024-01-30T08:38:56;98901.00;;;-0.39;88.40
77003;BME280;65939;50.060;14.288;2024-01-30T08:40:57;98899.88;;;-0.30;88.14
77003;BME280;65939;50.060;14.288;2024-01-30T08:42:58;98899.63;;;-0.22;87.97
77003;BME280;65939;50.060;14.288;2024-01-30T08:44:58;98900.13;;;-0.11;88.47
77003;BME280;65939;50.060;14.288;2024-01-30T08:46:59;98892.06;;;-0.01;87.52
77003;BME280;65939;50.060;14.288;2024-01-30T08:49:00;98896.09;;;0.07;88.24
77003;BME280;65939;50.060;14.288;2024-01-30T08:51:00;98890.69;;;0.16;88.29
77003;BME280;65939;50.060;14.288;2024-01-30T08:53:02;98892.16;;;0.23;87.43
77003;BME280;65939;50.060;14.288;2024-01-30T08:55:03;98885.97;;;0.29;87.21
77003;BME280;65939;50.060;14.288;2024-01-30T08:57:05;98890.13;;;0.33;87.59
77003;BME280;65939;50.060;14.288;2024-01-30T08:59:05;98889.88;;;0.39;88.35
77003;BME280;65939;50.060;14.288;2024-01-30T09:01:06;98891.31;;;0.47;88.51
77003;BME280;65939;50.060;14.288;2024-01-30T09:03:07;98889.31;;;0.56;87.91
77003;BME280;65939;50.060;14.288;2024-01-30T09:05:08;98886.44;;;0.65;87.89
77003;BME280;65939;50.060;14.288;2024-01-30T09:07:09;98896.38;;;0.74;87.60
77003;BME280;65939;50.060;14.288;2024-01-30T09:09:10;98892.69;;;0.81;87.78
77003;BME280;65939;50.060;14.288;2024-01-30T09:11:15;98881.28;;;0.88;88.33
77003;BME280;65939;50.060;14.288;2024-01-30T09:13:15;98888.66;;;0.98;88.02
77003;BME280;65939;50.060;14.288;2024-01-30T09:15:17;98883.25;;;1.05;87.59
77003;BME280;65939;50.060;14.288;2024-01-30T09:17:19;98883.75;;;1.15;87.99
77003;BME280;65939;50.060;14.288;2024-01-30T09:19:19;98886.81;;;1.25;88.08
77003;BME280;65939;50.060;14.288;2024-01-30T09:21:20;98882.25;;;1.31;87.87
77003;BME280;65939;50.060;14.288;2024-01-30T09:23:21;98882.03;;;1.37;87.67
77003;BME280;65939;50.060;14.288;2024-01-30T09:25:22;98881.13;;;1.38;87.40
77003;BME280;65939;50.060;14.288;2024-01-30T09:27:23;98878.50;;;1.40;87.70
77003;BME280;65939;50.060;14.288;2024-01-30T09:29:23;98878.53;;;1.38;87.44
77003;BME280;65939;50.060;14.288;2024-01-30T09:31:24;98882.84;;;1.38;87.11
77003;BME280;65939;50.060;14.288;2024-01-30T09:33:25;98889.56;;;1.42;86.91
77003;BME280;65939;50.060;14.288;2024-01-30T09:35:25;98890.22;;;1.47;87.48
77003;BME280;65939;50.060;14.288;2024-01-30T09:37:26;98890.75;;;1.55;87.13
77003;BME280;65939;50.060;14.288;2024-01-30T09:39:27;98879.28;;;1.64;87.81
77003;BME280;65939;50.060;14.288;2024-01-30T09:41:27;98884.13;;;1.72;87.17
77003;BME280;65939;50.060;14.288;2024-01-30T09:43:33;98883.81;;;1.79;87.17
77003;BME280;65939;50.060;14.288;2024-01-30T09:45:37;98881.00;;;1.85;87.60
77003;BME280;65939;50.060;14.288;2024-01-30T09:47:42;98874.75;;;1.91;86.48
77003;BME280;65939;50.060;14.288;2024-01-30T09:49:44;98883.19;;;1.95;86.77
77003;BME280;65939;50.060;14.288;2024-01-30T09:51:45;98878.63;;;2.01;87.03
77003;BME280;65939;50.060;14.288;2024-01-30T09:53:46;98878.63;;;2.01;86.39
77003;BME280;65939;50.060;14.288;2024-01-30T09:55:50;98868.56;;;1.95;85.98
77003;BME280;65939;50.060;14.288;2024-01-30T09:57:51;98878.03;;;1.95;85.88
77003;BME280;65939;50.060;14.288;2024-01-30T09:59:51;98876.97;;;2.00;86.22
77003;BME280;65939;50.060;14.288;2024-01-30T10:01:54;98882.63;;;2.08;86.49
77003;BME280;65939;50.060;14.288;2024-01-30T10:03:55;98872.06;;;2.14;86.27
77003;BME280;65939;50.060;14.288;2024-01-30T10:05:56;98874.53;;;2.18;86.24
77003;BME280;65939;50.060;14.288;2024-01-30T10:07:56;98874.31;;;2.22;85.89
77003;BME280;65939;50.060;14.288;2024-01-30T10:09:57;98874.41;;;2.21;85.58
77003;BME280;65939;50.060;14.288;2024-01-30T10:11:58;98872.59;;;2.23;85.83
77003;BME280;65939;50.060;14.288;2024-01-30T10:14:00;98870.78;;;2.25;85.47
77003;BME280;65939;50.060;14.288;2024-01-30T10:16:00;98870.59;;;2.29;86.02
77003;BME280;65939;50.060;14.288;2024-01-30T10:18:03;98866.22;;;2.31;85.72
77003;BME280;65939;50.060;14.288;2024-01-30T10:20:07;98873.03;;;2.32;85.76
77003;BME280;65939;50.060;14.288;2024-01-30T10:22:09;98869.56;;;2.33;85.47
77003;BME280;65939;50.060;14.288;2024-01-30T10:24:10;98869.44;;;2.36;85.83
77003;BME280;65939;50.060;14.288;2024-01-30T10:26:13;98864.84;;;2.43;85.39
77003;BME280;65939;50.060;14.288;2024-01-30T10:28:14;98868.00;;;2.50;85.79
77003;BME280;65939;50.060;14.288;2024-01-30T10:30:15;98868.50;;;2.58;85.41
77003;BME280;65939;50.060;14.288;2024-01-30T10:32:17;98864.06;;;2.61;85.23
77003;BME280;65939;50.060;14.288;2024-01-30T10:34:18;98865.72;;;2.62;85.03